Time;durP1;ratioP1;P1;durP2;ratioP2;P2;SDS_P1;SDS_P2;PMS_P1;PMS_P2;Temp;Humidity;BMP_temperature;BMP_pressure;BME280_temperature;BME280_humidity;BME280_pressure;Samples;Min_cycle;Max_cycle;Signal;HPM_P1;HPM_P2
2021/12/21 00:01:41;;;;;;;;;;;;;;;1.98;60.70;99103.03;5094919;28;19943;-77
2021/12/21 00:04:07;;;;;;;;;;;;;;;1.94;60.88;99109.78;5093602;28;20581;-74
2021/12/21 00:06:32;;;;;;;;;;;;;;;1.92;60.99;99097.63;5111740;28;19927;-73
2021/12/21 00:08:57;;;;;;;;;;;;;;;1.90;61.18;99112.03;5111541;27;19920;-73
2021/12/21 00:11:23;;;;;;;;;;;;;;;1.86;61.30;99108.25;5114081;27;19928;-73
2021/12/21 00:16:27;;;;;;;;;;;;;;;1.80;60.92;99119.66;5111266;27;19976;-74
2021/12/21 00:23:57;;;;;;;;;;;;;;;1.71;60.59;99122.56;5111955;28;20334;-73
2021/12/21 00:26:23;;;;;;;;;;;;;;;1.71;60.68;99119.91;5111561;28;19920;-74
2021/12/21 00:31:21;;;;;;;;;;;;;;;1.70;60.43;99126.22;5123432;27;19931;-73
2021/12/21 00:33:47;;;;;;;;;;;;;;;1.70;61.22;99118.31;5102412;28;19920;-73
2021/12/21 00:36:16;;;;;;;;;;;;;;;1.71;61.07;99119.91;5115223;27;19920;-76
2021/12/21 00:38:42;;;;;;;;;;;;;;;1.69;60.68;99116.69;5110597;28;19919;-75
2021/12/21 00:41:08;;;;;;;;;;;;;;;1.69;61.08;99121.97;5111373;28;19975;-75
2021/12/21 00:43:33;;;;;;;;;;;;;;;1.71;60.76;99125.19;5094267;28;19927;-74
2021/12/21 00:45:58;;;;;;;;;;;;;;;1.72;61.12;99120.72;5111553;28;20434;-75
2021/12/21 00:48:28;;;;;;;;;;;;;;;1.71;60.72;99121.72;5113217;28;20275;-75
2021/12/21 00:50:55;;;;;;;;;;;;;;;1.72;60.58;99120.72;5111422;28;20011;-74
2021/12/21 00:53:20;;;;;;;;;;;;;;;1.71;60.76;99121.72;5093183;28;19947;-71
2021/12/21 00:55:46;;;;;;;;;;;;;;;1.70;60.54;99118.31;5112598;28;20394;-73
2021/12/21 00:58:12;;;;;;;;;;;;;;;1.69;60.48;99123.81;5114081;28;19943;-72
2021/12/21 01:00:37;;;;;;;;;;;;;;;1.68;60.62;99122.97;5130806;28;20497;-73
2021/12/21 01:03:08;;;;;;;;;;;;;;;1.70;60.43;99123.56;5131987;28;19915;-73
2021/12/21 01:06:03;;;;;;;;;;;;;;;1.69;60.09;99124.59;5112611;28;19980;-73
2021/12/21 01:08:24;;;;;;;;;;;;;;;1.69;59.89;99124.59;5127820;28;20375;-72
2021/12/21 01:11:16;;;;;;;;;;;;;;;1.68;60.31;99125.63;5111248;28;19920;-74
2021/12/21 01:18:41;;;;;;;;;;;;;;;1.65;60.09;99115.50;5115794;27;20003;-70
2021/12/21 01:21:18;;;;;;;;;;;;;;;1.66;59.69;99130.31;5127023;27;19920;-70
2021/12/21 01:24:05;;;;;;;;;;;;;;;1.63;59.51;99127.28;5115552;28;19920;-70
2021/12/21 01:27:17;;;;;;;;;;;;;;;1.63;59.28;99129.94;5122770;27;19975;-70
2021/12/21 01:29:41;;;;;;;;;;;;;;;1.61;59.16;99135.41;5103615;28;19959;-70
2021/12/21 01:35:01;;;;;;;;;;;;;;;1.62;59.00;99123.03;5135582;27;19972;-70
2021/12/21 01:37:31;;;;;;;;;;;;;;;1.62;59.39;99129.09;5114699;27;19920;-73
2021/12/21 01:40:13;;;;;;;;;;;;;;;1.63;58.83;99127.28;5132400;27;19973;-74
2021/12/21 01:43:29;;;;;;;;;;;;;;;1.62;58.63;99121.19;5093284;27;19926;-73
2021/12/21 01:50:51;;;;;;;;;;;;;;;1.61;58.45;99106.41;5135610;27;19923;-72
2021/12/21 01:53:17;;;;;;;;;;;;;;;1.60;58.60;99115.34;5135012;27;19911;-72
2021/12/21 01:55:42;;;;;;;;;;;;;;;1.58;57.94;99118.19;5113969;27;19930;-72
2021/12/21 01:58:08;;;;;;;;;;;;;;;1.57;58.28;99121.84;5122558;27;19916;-72
2021/12/21 02:00:33;;;;;;;;;;;;;;;1.56;58.22;99116.78;5116146;27;19923;-72
2021/12/21 02:03:02;;;;;;;;;;;;;;;1.53;58.36;99120.66;5117311;27;19916;-71
2021/12/21 02:05:27;;;;;;;;;;;;;;;1.52;58.09;99126.97;5129000;27;19988;-72
2021/12/21 02:07:52;;;;;;;;;;;;;;;1.53;57.83;99127.78;5120188;27;20363;-71
2021/12/21 02:10:18;;;;;;;;;;;;;;;1.53;58.35;99122.50;5122221;27;19920;-71
2021/12/21 02:12:43;;;;;;;;;;;;;;;1.52;57.51;99121.69;5123757;27;19924;-71
2021/12/21 02:15:08;;;;;;;;;;;;;;;1.54;57.66;99126.75;5120383;27;19919;-71
2021/12/21 02:18:17;;;;;;;;;;;;;;;1.53;57.49;99130.41;5114404;27;19929;-70
2021/12/21 02:23:06;;;;;;;;;;;;;;;1.54;56.49;99129.41;5114257;28;19916;-70
2021/12/21 02:28:21;;;;;;;;;;;;;;;1.53;57.22;99123.31;5117092;27;20022;-70
2021/12/21 02:30:51;;;;;;;;;;;;;;;1.55;57.14;99137.09;5121442;27;20318;-70
2021/12/21 02:33:17;;;;;;;;;;;;;;;1.53;56.82;99133.84;5093898;28;19920;-70
2021/12/21 02:35:42;;;;;;;;;;;;;;;1.53;57.27;99133.06;5116040;27;20393;-68
2021/12/21 02:38:08;;;;;;;;;;;;;;;1.53;57.11;99133.84;5125505;27;19919;-70
2021/12/21 02:40:34;;;;;;;;;;;;;;;1.52;56.77;99121.69;5120098;27;19920;-70
2021/12/21 02:42:59;;;;;;;;;;;;;;;1.52;56.91;99129.59;5113241;27;20002;-70
2021/12/21 02:45:25;;;;;;;;;;;;;;;1.52;57.08;99120.88;5115972;27;20015;-70
2021/12/21 02:47:50;;;;;;;;;;;;;;;1.53;56.94;99122.50;5113483;28;19930;-71
2021/12/21 02:50:15;;;;;;;;;;;;;;;1.53;57.74;99114.59;5113620;28;20442;-70
2021/12/21 02:52:41;;;;;;;;;;;;;;;1.52;57.16;99118.25;5112143;28;19919;-69
2021/12/21 02:55:07;;;;;;;;;;;;;;;1.50;57.29;99125.56;5116766;27;19925;-69
2021/12/21 02:57:32;;;;;;;;;;;;;;;1.51;57.15;99138.50;5114796;27;19920;-69
2021/12/21 03:00:00;;;;;;;;;;;;;;;1.51;56.60;99135.09;5096484;28;19924;-69
2021/12/21 03:02:26;;;;;;;;;;;;;;;1.51;56.60;99143.00;5126074;27;20341;-72
2021/12/21 03:04:51;;;;;;;;;;;;;;;1.51;55.74;99141.16;5134064;27;19916;-71
2021/12/21 03:09:55;;;;;;;;;;;;;;;1.56;56.03;99145.78;5133949;27;19919;-74
2021/12/21 03:14:46;;;;;;;;;;;;;;;1.60;56.06;99147.78;5093033;28;20015;-72
2021/12/21 03:17:11;;;;;;;;;;;;;;;1.63;55.71;99149.19;5116033;27;20360;-71
2021/12/21 03:19:37;;;;;;;;;;;;;;;1.66;56.21;99153.22;5113337;28;19927;-71
2021/12/21 03:22:03;;;;;;;;;;;;;;;1.68;55.35;99161.72;5113944;27;19919;-72
2021/12/21 03:24:28;;;;;;;;;;;;;;;1.71;55.81;99151.56;5133433;27;19916;-70
2021/12/21 03:26:53;;;;;;;;;;;;;;;1.73;55.12;99159.25;5119796;27;19975;-70
2021/12/21 03:29:19;;;;;;;;;;;;;;;1.73;54.88;99154.78;5112818;28;20015;-71
2021/12/21 03:31:44;;;;;;;;;;;;;;;1.73;55.06;99152.16;5113332;28;19916;-71
2021/12/21 03:34:10;;;;;;;;;;;;;;;1.74;55.54;99151.13;5113307;28;19923;-71
2021/12/21 03:36:35;;;;;;;;;;;;;;;1.73;55.01;99152.16;5112499;28;20399;-71
2021/12/21 03:39:08;;;;;;;;;;;;;;;1.73;55.60;99153.97;5130757;27;19923;-71
2021/12/21 03:41:34;;;;;;;;;;;;;;;1.73;55.77;99151.34;5132529;27;19935;-71
2021/12/21 03:44:01;;;;;;;;;;;;;;;1.71;55.91;99151.56;5133370;27;19964;-71
2021/12/21 03:46:27;;;;;;;;;;;;;;;1.72;56.04;99153.19;5132577;27;19915;-74
2021/12/21 03:48:52;;;;;;;;;;;;;;;1.73;56.47;99156.63;5094224;28;19938;-71
2021/12/21 03:51:19;;;;;;;;;;;;;;;1.72;56.08;99152.34;5128416;27;19916;-71
2021/12/21 03:53:44;;;;;;;;;;;;;;;1.70;56.61;99160.47;5112976;27;19924;-72
2021/12/21 03:58:35;;;;;;;;;;;;;;;1.68;56.36;99167.78;5131042;27;19942;-72
2021/12/21 04:01:00;;;;;;;;;;;;;;;1.68;56.92;99154.63;5094714;28;20401;-72
2021/12/21 04:03:26;;;;;;;;;;;;;;;1.68;56.85;99172.28;5111931;28;19927;-72
2021/12/21 04:05:51;;;;;;;;;;;;;;;1.66;56.79;99172.50;5115354;27;19942;-72
2021/12/21 04:08:17;;;;;;;;;;;;;;;1.68;57.09;99177.53;5094011;28;19920;-72
2021/12/21 04:10:42;;;;;;;;;;;;;;;1.66;56.44;99172.50;5111480;28;19973;-71
2021/12/21 04:13:10;;;;;;;;;;;;;;;1.65;57.02;99177.97;5112019;28;19920;-72
2021/12/21 04:15:42;;;;;;;;;;;;;;;1.66;57.06;99175.13;5113912;27;19963;-71
2021/12/21 04:18:08;;;;;;;;;;;;;;;1.66;56.92;99179.56;5129431;27;19919;-71
2021/12/21 04:20:33;;;;;;;;;;;;;;;1.66;57.44;99182.22;5105036;28;20306;-71
2021/12/21 04:22:58;;;;;;;;;;;;;;;1.66;57.48;99176.94;5091796;28;20291;-72
2021/12/21 04:25:23;;;;;;;;;;;;;;;1.64;56.91;99184.28;5106450;28;20003;-71
2021/12/21 04:27:49;;;;;;;;;;;;;;;1.62;57.88;99179.19;5111216;28;19927;-71
2021/12/21 04:30:14;;;;;;;;;;;;;;;1.64;57.71;99189.56;5111913;27;19954;-71
2021/12/21 04:32:39;;;;;;;;;;;;;;;1.64;57.65;99185.06;5112139;28;20286;-71
2021/12/21 04:35:05;;;;;;;;;;;;;;;1.63;56.80;99198.47;5112028;28;19923;-71
2021/12/21 04:37:34;;;;;;;;;;;;;;;1.63;57.50;99196.63;5096658;28;19924;-71
2021/12/21 04:40:05;;;;;;;;;;;;;;;1.62;57.37;99192.38;5112606;28;19927;-71
2021/12/21 04:42:30;;;;;;;;;;;;;;;1.64;57.17;99203.53;5132244;28;19926;-71
2021/12/21 04:44:55;;;;;;;;;;;;;;;1.64;57.33;99208.81;5132009;28;19916;-71
2021/12/21 04:47:21;;;;;;;;;;;;;;;1.66;57.04;99204.13;5111356;28;20377;-72
2021/12/21 04:49:46;;;;;;;;;;;;;;;1.66;57.67;99209.41;5115591;28;19916;-71
2021/12/21 04:52:11;;;;;;;;;;;;;;;1.67;57.34;99207.56;5127949;27;19916;-71
2021/12/21 04:54:37;;;;;;;;;;;;;;;1.66;56.93;99214.69;5127960;27;19920;-71
2021/12/21 04:57:02;;;;;;;;;;;;;;;1.66;56.83;99209.41;5116035;28;19963;-71
2021/12/21 04:59:28;;;;;;;;;;;;;;;1.66;57.14;99219.94;5115963;28;20309;-71
2021/12/21 05:01:54;;;;;;;;;;;;;;;1.68;57.51;99225.78;5115908;28;20357;-72
2021/12/21 05:04:20;;;;;;;;;;;;;;;1.67;57.16;99224.22;5097583;28;19923;-71
2021/12/21 05:06:45;;;;;;;;;;;;;;;1.68;57.42;99222.38;5134595;27;19919;-74
2021/12/21 05:09:14;;;;;;;;;;;;;;;1.68;56.77;99231.06;5108167;28;20019;-73
2021/12/21 05:11:42;;;;;;;;;;;;;;;1.68;57.94;99230.28;5097133;28;19923;-73
2021/12/21 05:14:09;;;;;;;;;;;;;;;1.69;57.54;99234.53;5101959;28;20014;-73
2021/12/21 05:16:34;;;;;;;;;;;;;;;1.69;61.39;99235.31;5107099;27;19929;-74
2021/12/21 05:19:00;;;;;;;;;;;;;;;1.78;60.94;99235.06;5112519;28;21405;-74
2021/12/21 05:21:25;;;;;;;;;;;;;;;1.78;57.54;99235.06;5100040;28;19920;-75
2021/12/21 05:23:50;;;;;;;;;;;;;;;1.76;56.89;99246.63;5102350;27;19997;-73
2021/12/21 05:26:16;;;;;;;;;;;;;;;1.76;56.47;99249.28;5097632;28;19928;-74
2021/12/21 05:28:41;;;;;;;;;;;;;;;1.76;56.96;99256.41;5111428;28;19919;-77
2021/12/21 05:31:06;;;;;;;;;;;;;;;1.73;56.59;99262.06;5087950;28;20306;-74
2021/12/21 05:33:32;;;;;;;;;;;;;;;1.73;57.40;99267.34;5114553;28;19963;-74
2021/12/21 05:35:57;;;;;;;;;;;;;;;1.72;56.75;99279.75;5115172;28;19916;-74
2021/12/21 05:38:30;;;;;;;;;;;;;;;1.69;56.58;99282.00;5114784;28;19916;-74
2021/12/21 05:40:58;;;;;;;;;;;;;;;1.67;57.26;99286.66;5096835;28;20010;-74
2021/12/21 05:43:23;;;;;;;;;;;;;;;1.65;57.04;99289.50;5096514;28;19916;-74
2021/12/21 05:45:48;;;;;;;;;;;;;;;1.64;57.52;99281.81;5115064;28;19916;-74
2021/12/21 05:48:14;;;;;;;;;;;;;;;1.64;57.20;99289.72;5130619;27;19922;-74
2021/12/21 05:50:39;;;;;;;;;;;;;;;1.65;57.64;99291.31;5114956;28;19926;-74
2021/12/21 05:53:04;;;;;;;;;;;;;;;1.65;57.60;99289.50;5096639;28;19915;-75
2021/12/21 05:55:30;;;;;;;;;;;;;;;1.67;58.01;99290.13;5114551;28;19972;-74
2021/12/21 05:57:55;;;;;;;;;;;;;;;1.69;57.43;99289.91;5114525;28;20443;-73
2021/12/21 06:00:23;;;;;;;;;;;;;;;1.70;57.79;99294.97;5114245;28;20006;-73
2021/12/21 06:02:48;;;;;;;;;;;;;;;1.73;57.47;99305.09;5114472;28;19920;-73
2021/12/21 06:05:13;;;;;;;;;;;;;;;1.77;58.03;99313.38;5115002;28;19923;-73
2021/12/21 06:07:39;;;;;;;;;;;;;;;1.83;57.91;99311.72;5114437;28;19994;-73
2021/12/21 06:10:13;;;;;;;;;;;;;;;1.90;57.58;99312.50;5114419;28;19922;-74
2021/12/21 06:15:25;;;;;;;;;;;;;;;2.08;56.91;99312.56;5114258;28;20298;-72
2021/12/21 06:26:03;;;;;;;;;;;;;;;2.38;56.20;99327.78;5114187;28;19955;-72
2021/12/21 06:28:28;;;;;;;;;;;;;;;2.38;55.53;99321.69;5095512;28;19916;-72
2021/12/21 06:30:54;;;;;;;;;;;;;;;2.39;55.31;99320.66;5114124;28;19916;-72
2021/12/21 06:33:19;;;;;;;;;;;;;;;2.39;55.25;99331.22;5113972;28;20298;-72
2021/12/21 06:35:45;;;;;;;;;;;;;;;2.37;55.16;99328.00;5113989;28;19919;-72
2021/12/21 06:38:10;;;;;;;;;;;;;;;2.39;55.62;99339.16;5095409;28;19923;-72
2021/12/21 06:40:36;;;;;;;;;;;;;;;2.44;55.58;99346.44;5129343;27;19949;-72
2021/12/21 06:43:01;;;;;;;;;;;;;;;2.45;55.39;99348.84;5113405;28;20018;-72
2021/12/21 06:45:44;;;;;;;;;;;;;;;2.48;55.11;99342.31;5094648;28;19926;-72
2021/12/21 06:53:38;;;;;;;;;;;;;;;2.49;54.70;99351.88;5112899;28;20348;-73
2021/12/21 06:56:04;;;;;;;;;;;;;;;2.50;55.12;99348.19;5112920;28;19922;-73
2021/12/21 06:58:29;;;;;;;;;;;;;;;2.52;54.70;99354.09;5112448;28;20011;-73
2021/12/21 07:00:55;;;;;;;;;;;;;;;2.54;54.69;99352.84;5128806;27;20010;-73
2021/12/21 07:03:20;;;;;;;;;;;;;;;2.58;54.63;99355.06;5113285;28;20428;-73
2021/12/21 07:05:46;;;;;;;;;;;;;;;2.61;54.47;99370.47;5112575;28;19920;-73
2021/12/21 07:08:15;;;;;;;;;;;;;;;2.63;54.55;99371.06;5113779;28;19920;-73
2021/12/21 07:10:44;;;;;;;;;;;;;;;2.65;53.86;99358.44;5094320;28;19971;-73
2021/12/21 07:18:37;;;;;;;;;;;;;;;2.87;53.90;99372.88;5113133;28;19922;-73
2021/12/21 07:21:02;;;;;;;;;;;;;;;2.94;53.38;99375.47;5113192;28;19916;-73
2021/12/21 07:23:28;;;;;;;;;;;;;;;3.04;52.78;99365.22;5094340;28;19982;-73
2021/12/21 07:25:54;;;;;;;;;;;;;;;3.15;52.31;99370.78;5113139;28;19916;-73
2021/12/21 07:28:19;;;;;;;;;;;;;;;3.25;51.68;99373.75;5113187;28;20381;-73
2021/12/21 07:30:47;;;;;;;;;;;;;;;3.34;51.49;99374.25;5113093;28;19964;-73
2021/12/21 07:33:12;;;;;;;;;;;;;;;3.44;51.03;99382.50;5094384;28;19916;-73
2021/12/21 07:35:37;;;;;;;;;;;;;;;3.55;49.92;99390.72;5112579;28;19923;-73
2021/12/21 07:38:04;;;;;;;;;;;;;;;3.63;50.17;99391.22;5113194;28;20325;-73
2021/12/21 07:40:29;;;;;;;;;;;;;;;3.71;50.17;99390.13;5112568;28;19916;-73
2021/12/21 07:42:54;;;;;;;;;;;;;;;3.76;49.83;99395.56;5128558;27;19916;-73
2021/12/21 07:45:19;;;;;;;;;;;;;;;3.82;49.25;99402.59;5128599;27;20367;-73
2021/12/21 07:47:45;;;;;;;;;;;;;;;3.89;49.67;99404.34;5112834;28;19920;-73
2021/12/21 07:50:11;;;;;;;;;;;;;;;3.91;48.79;99403.09;5112499;28;19919;-73
2021/12/21 07:52:36;;;;;;;;;;;;;;;3.97;49.07;99401.41;5094159;28;19915;-73
2021/12/21 07:55:01;;;;;;;;;;;;;;;4.01;48.50;99408.66;5094271;28;19922;-73
2021/12/21 07:57:27;;;;;;;;;;;;;;;4.07;48.74;99404.31;5093957;28;20363;-73
2021/12/21 07:59:52;;;;;;;;;;;;;;;4.08;48.52;99403.28;5094238;28;19923;-73
2021/12/21 08:02:17;;;;;;;;;;;;;;;4.12;48.98;99408.94;5112187;28;19916;-72
2021/12/21 08:04:43;;;;;;;;;;;;;;;4.16;48.46;99412.75;5112187;28;19924;-72
2021/12/21 08:07:13;;;;;;;;;;;;;;;4.19;47.93;99411.47;5111986;28;19927;-73
2021/12/21 08:09:42;;;;;;;;;;;;;;;4.20;48.00;99413.09;5112048;28;19977;-72
2021/12/21 08:12:13;;;;;;;;;;;;;;;4.22;47.61;99411.03;5112250;28;19973;-73
2021/12/21 08:14:38;;;;;;;;;;;;;;;4.24;47.77;99414.28;5093809;28;20294;-73
2021/12/21 08:17:04;;;;;;;;;;;;;;;4.24;47.82;99420.38;5112163;28;19937;-73
2021/12/21 08:19:29;;;;;;;;;;;;;;;4.27;48.49;99414.66;5093729;28;19922;-73
2021/12/21 08:21:55;;;;;;;;;;;;;;;4.31;47.99;99426.38;5111510;28;20008;-73
2021/12/21 08:24:20;;;;;;;;;;;;;;;4.28;47.05;99423.38;5111582;28;20370;-73
2021/12/21 08:26:45;;;;;;;;;;;;;;;4.28;47.09;99431.31;5111610;28;19916;-73
2021/12/21 08:29:10;;;;;;;;;;;;;;;4.29;47.90;99433.75;5093686;28;19920;-73
2021/12/21 08:31:36;;;;;;;;;;;;;;;4.30;47.60;99438.00;5111561;28;20363;-73
2021/12/21 08:34:01;;;;;;;;;;;;;;;4.30;47.05;99440.66;5111660;28;19915;-73
2021/12/21 08:36:26;;;;;;;;;;;;;;;4.31;47.74;99436.97;5111944;28;20426;-73
2021/12/21 08:38:51;;;;;;;;;;;;;;;4.35;47.28;99447.13;5111560;28;20405;-73
2021/12/21 08:41:17;;;;;;;;;;;;;;;4.34;46.86;99438.38;5093282;28;19916;-73
2021/12/21 08:43:42;;;;;;;;;;;;;;;4.32;46.14;99437.78;5111634;28;19968;-72
2021/12/21 08:46:08;;;;;;;;;;;;;;;4.35;47.87;99441.84;5111560;28;19915;-73
2021/12/21 08:48:34;;;;;;;;;;;;;;;4.38;47.50;99457.25;5111367;28;19916;-73
2021/12/21 08:51:00;;;;;;;;;;;;;;;4.35;46.45;99437.34;5111849;28;19923;-73
2021/12/21 08:53:25;;;;;;;;;;;;;;;4.37;47.21;99445.03;5111976;28;19972;-73
2021/12/21 08:55:52;;;;;;;;;;;;;;;4.40;47.25;99450.69;5111455;28;20003;-73
2021/12/21 08:58:17;;;;;;;;;;;;;;;4.45;47.32;99444.75;5093186;28;19922;-73
2021/12/21 09:00:42;;;;;;;;;;;;;;;4.46;46.53;99455.09;5111217;28;19920;-73
2021/12/21 09:03:08;;;;;;;;;;;;;;;4.48;46.30;99452.25;5111683;28;20280;-73
2021/12/21 09:05:34;;;;;;;;;;;;;;;4.46;45.44;99462.25;5092697;28;19916;-73
2021/12/21 09:08:00;;;;;;;;;;;;;;;4.45;45.04;99447.38;5093327;28;20006;-73
2021/12/21 09:10:27;;;;;;;;;;;;;;;4.46;46.08;99449.81;5093356;28;19916;-73
2021/12/21 09:12:52;;;;;;;;;;;;;;;4.45;45.78;99452.69;5111505;28;19959;-73
2021/12/21 09:15:18;;;;;;;;;;;;;;;4.45;45.49;99450.81;5111564;28;19962;-72
2021/12/21 09:17:44;;;;;;;;;;;;;;;4.47;44.95;99454.06;5111083;28;20317;-73
2021/12/21 09:20:10;;;;;;;;;;;;;;;4.46;44.81;99451.66;5111336;28;19915;-73
2021/12/21 09:22:36;;;;;;;;;;;;;;;4.46;45.29;99444.50;5111189;28;19962;-73
2021/12/21 09:25:02;;;;;;;;;;;;;;;4.52;46.01;99447.28;5111148;28;19963;-73
2021/12/21 09:27:27;;;;;;;;;;;;;;;4.56;45.64;99449.25;5111412;28;19916;-72
2021/12/21 09:29:53;;;;;;;;;;;;;;;4.61;44.84;99452.06;5111217;28;19916;-73
2021/12/21 09:32:18;;;;;;;;;;;;;;;4.63;44.90;99442.03;5111318;28;19923;-73
2021/12/21 09:34:44;;;;;;;;;;;;;;;4.65;44.57;99444.44;5095011;28;20014;-73
2021/12/21 09:37:14;;;;;;;;;;;;;;;4.69;44.78;99431.53;5115255;28;20007;-73
2021/12/21 09:39:43;;;;;;;;;;;;;;;4.73;44.82;99428.22;5114989;28;20014;-73
2021/12/21 09:42:12;;;;;;;;;;;;;;;4.75;43.95;99430.66;5115361;28;20010;-73
2021/12/21 09:44:38;;;;;;;;;;;;;;;4.78;43.41;99432.84;5114855;28;19916;-73
2021/12/21 09:47:06;;;;;;;;;;;;;;;4.77;43.20;99412.66;5115030;28;19984;-73
2021/12/21 09:49:31;;;;;;;;;;;;;;;4.79;43.33;99427.31;5096337;28;20014;-73
2021/12/21 09:51:57;;;;;;;;;;;;;;;4.80;43.03;99425.47;5115189;28;20002;-72
2021/12/21 09:54:24;;;;;;;;;;;;;;;4.80;43.43;99430.78;5114926;28;19923;-73
2021/12/21 09:56:49;;;;;;;;;;;;;;;4.82;43.79;99415.44;5114628;28;20283;-73
2021/12/21 09:59:15;;;;;;;;;;;;;;;4.84;43.53;99425.81;5114773;28;19923;-73
2021/12/21 10:01:40;;;;;;;;;;;;;;;4.86;43.37;99432.50;5114646;28;19978;-73
2021/12/21 10:04:05;;;;;;;;;;;;;;;4.88;42.38;99430.44;5096343;28;19922;-73
2021/12/21 10:06:41;;;;;;;;;;;;;;;4.88;42.23;99422.50;5130186;27;20012;-73
2021/12/21 10:09:06;;;;;;;;;;;;;;;4.92;42.04;99426.28;5114667;28;19916;-73
2021/12/21 10:11:40;;;;;;;;;;;;;;;4.94;42.28;99429.53;5096065;28;20447;-73
2021/12/21 10:14:06;;;;;;;;;;;;;;;4.97;42.02;99420.31;5114474;28;19915;-73
2021/12/21 10:16:31;;;;;;;;;;;;;;;5.00;42.23;99425.13;5114054;28;19920;-73
2021/12/21 10:18:56;;;;;;;;;;;;;;;5.04;42.13;99423.66;5095903;28;20276;-73
2021/12/21 10:21:21;;;;;;;;;;;;;;;5.09;41.62;99420.28;5114471;28;19916;-73
2021/12/21 10:23:48;;;;;;;;;;;;;;;5.12;41.28;99431.25;5113800;28;19950;-73
2021/12/21 10:26:20;;;;;;;;;;;;;;;5.13;41.60;99421.47;5114707;28;20011;-72
2021/12/21 10:28:49;;;;;;;;;;;;;;;5.15;41.94;99424.69;5113712;28;20011;-73
2021/12/21 10:31:15;;;;;;;;;;;;;;;5.15;40.15;99426.53;5095849;28;19928;-73
2021/12/21 10:33:43;;;;;;;;;;;;;;;5.14;39.40;99423.09;5095648;28;19920;-73
2021/12/21 10:36:09;;;;;;;;;;;;;;;5.16;40.28;99414.88;5095641;28;19916;-73
2021/12/21 10:38:35;;;;;;;;;;;;;;;5.15;40.55;99415.94;5114152;28;19916;-73
2021/12/21 10:41:06;;;;;;;;;;;;;;;5.16;40.60;99413.03;5114003;28;20346;-74
2021/12/21 10:43:32;;;;;;;;;;;;;;;5.17;41.97;99412.00;5113443;28;20390;-72
2021/12/21 10:45:57;;;;;;;;;;;;;;;5.19;41.25;99407.28;5113043;28;19923;-73
2021/12/21 10:48:23;;;;;;;;;;;;;;;5.19;40.92;99412.59;5113459;28;19955;-73
2021/12/21 10:50:48;;;;;;;;;;;;;;;5.22;40.43;99403.34;5129282;27;20014;-73
2021/12/21 10:53:18;;;;;;;;;;;;;;;5.25;41.00;99414.31;5113821;28;19922;-73
2021/12/21 10:55:43;;;;;;;;;;;;;;;5.27;40.85;99412.25;5113281;28;19920;-73
2021/12/21 10:58:15;;;;;;;;;;;;;;;5.29;40.60;99417.31;5113361;28;20276;-72
2021/12/21 11:00:47;;;;;;;;;;;;;;;5.32;41.64;99414.19;5113333;28;19920;-72
2021/12/21 11:03:16;;;;;;;;;;;;;;;5.35;40.26;99412.94;5113523;28;19915;-71
2021/12/21 11:05:42;;;;;;;;;;;;;;;5.39;40.63;99414.88;5112773;28;19920;-72
2021/12/21 11:08:14;;;;;;;;;;;;;;;5.42;40.08;99409.09;5113413;28;20435;-71
2021/12/21 11:10:41;;;;;;;;;;;;;;;5.45;40.30;99400.66;5112894;28;20409;-73
2021/12/21 11:13:12;;;;;;;;;;;;;;;5.42;40.33;99400.31;5094945;28;19923;-73
2021/12/21 11:15:41;;;;;;;;;;;;;;;5.46;41.18;99401.50;5113037;28;19964;-73
2021/12/21 11:18:19;;;;;;;;;;;;;;;5.47;41.52;99399.63;5112995;28;19915;-73
2021/12/21 11:20:48;;;;;;;;;;;;;;;5.51;41.79;99404.25;5112978;28;19916;-73
2021/12/21 11:23:14;;;;;;;;;;;;;;;5.54;40.94;99411.75;5094703;28;19923;-73
2021/12/21 11:25:42;;;;;;;;;;;;;;;5.56;40.97;99403.56;5112862;28;20295;-74
2021/12/21 11:28:08;;;;;;;;;;;;;;;5.59;41.34;99411.03;5112894;28;19991;-71
2021/12/21 11:30:36;;;;;;;;;;;;;;;5.61;42.07;99401.81;5112793;28;20010;-73
2021/12/21 11:33:10;;;;;;;;;;;;;;;5.61;41.44;99414.25;5113261;28;19923;-73
2021/12/21 11:38:02;;;;;;;;;;;;;;;5.64;40.34;99412.97;5112934;28;20363;-73
2021/12/21 11:40:32;;;;;;;;;;;;;;;5.61;39.20;99428.34;5112589;28;19920;-73
2021/12/21 11:43:01;;;;;;;;;;;;;;;5.62;38.92;99415.88;5112829;28;19916;-73
2021/12/21 11:45:30;;;;;;;;;;;;;;;5.62;39.16;99421.19;5112749;28;19972;-73
2021/12/21 11:47:58;;;;;;;;;;;;;;;5.63;39.30;99414.84;5112756;28;19915;-73
2021/12/21 11:50:24;;;;;;;;;;;;;;;5.64;39.11;99412.97;5094246;28;20504;-73
2021/12/21 11:52:51;;;;;;;;;;;;;;;5.64;40.36;99421.78;5112387;28;19926;-73
2021/12/21 11:55:18;;;;;;;;;;;;;;;5.61;39.69;99411.59;5112474;28;19916;-73
2021/12/21 11:57:45;;;;;;;;;;;;;;;5.58;39.42;99418.19;5093756;28;19926;-73
2021/12/21 12:00:13;;;;;;;;;;;;;;;5.52;38.35;99426.28;5112548;28;19916;-74
2021/12/21 12:02:39;;;;;;;;;;;;;;;5.48;38.56;99422.47;5111941;28;19916;-72
2021/12/21 12:05:22;;;;;;;;;;;;;;;5.42;38.46;99425.03;5112363;28;19916;-72
2021/12/21 12:07:58;;;;;;;;;;;;;;;5.36;37.98;99428.59;5111898;28;20011;-72
2021/12/21 12:10:23;;;;;;;;;;;;;;;5.35;38.68;99428.84;5093300;28;19922;-72
2021/12/21 12:12:49;;;;;;;;;;;;;;;5.38;38.80;99433.66;5111064;28;19998;-72
2021/12/21 12:15:17;;;;;;;;;;;;;;;5.36;37.67;99433.09;5111442;28;19916;-72
2021/12/21 12:17:46;;;;;;;;;;;;;;;5.40;37.90;99431.59;5111588;28;19916;-72
2021/12/21 12:20:12;;;;;;;;;;;;;;;5.44;38.55;99430.91;5111392;28;19962;-72
2021/12/21 12:22:38;;;;;;;;;;;;;;;5.51;39.07;99432.63;5111399;28;19947;-72
2021/12/21 12:25:04;;;;;;;;;;;;;;;5.60;40.29;99436.53;5093026;28;19923;-72
2021/12/21 12:27:30;;;;;;;;;;;;;;;5.64;38.05;99432.38;5111100;28;19916;-72
2021/12/21 12:29:56;;;;;;;;;;;;;;;5.71;38.93;99434.88;5111159;28;19916;-72
2021/12/21 12:32:42;;;;;;;;;;;;;;;5.79;39.15;99431.88;5111430;28;20022;-72
2021/12/21 12:35:12;;;;;;;;;;;;;;;5.81;37.14;99427.16;5111569;28;19923;-72
2021/12/21 12:37:51;;;;;;;;;;;;;;;5.82;37.03;99441.22;5111107;28;19921;-73
2021/12/21 12:40:18;;;;;;;;;;;;;;;5.69;37.14;99436.97;5111419;28;19923;-72
2021/12/21 12:42:53;;;;;;;;;;;;;;;5.68;38.23;99432.72;5111665;28;20003;-71
2021/12/21 12:45:20;;;;;;;;;;;;;;;5.61;37.60;99438.97;5112166;28;19935;-72
2021/12/21 12:47:52;;;;;;;;;;;;;;;5.56;39.96;99438.84;5111635;28;19915;-73
2021/12/21 12:50:29;;;;;;;;;;;;;;;5.52;40.26;99458.13;5111644;28;19959;-73
2021/12/21 12:52:55;;;;;;;;;;;;;;;5.42;40.72;99451.56;5111818;28;19988;-73
2021/12/21 12:55:21;;;;;;;;;;;;;;;5.36;40.06;99444.53;5111816;28;19927;-72
2021/12/21 12:57:54;;;;;;;;;;;;;;;5.33;40.15;99441.53;5092915;28;19920;-72
2021/12/21 13:00:25;;;;;;;;;;;;;;;5.33;40.53;99450.28;5111750;28;19922;-73
2021/12/21 13:02:53;;;;;;;;;;;;;;;5.34;41.21;99448.44;5111474;28;20532;-72
2021/12/21 13:05:19;;;;;;;;;;;;;;;5.33;41.38;99452.13;5111905;28;19920;-72
2021/12/21 13:07:44;;;;;;;;;;;;;;;5.22;41.83;99470.44;5111470;28;20007;-72
2021/12/21 13:10:10;;;;;;;;;;;;;;;5.15;41.68;99472.44;5114708;28;20072;-72
2021/12/21 13:12:36;;;;;;;;;;;;;;;5.10;42.41;99474.94;5115544;28;19923;-72
2021/12/21 13:15:02;;;;;;;;;;;;;;;5.03;42.03;99461.81;5115741;28;20401;-72
2021/12/21 13:17:28;;;;;;;;;;;;;;;5.00;42.77;99472.84;5097288;28;19919;-73
2021/12/21 13:19:53;;;;;;;;;;;;;;;4.97;42.47;99478.63;5115070;28;19915;-72
2021/12/21 13:22:23;;;;;;;;;;;;;;;4.96;42.48;99477.00;5097180;28;19922;-71
2021/12/21 13:24:49;;;;;;;;;;;;;;;4.91;42.36;99487.50;5115268;28;19923;-72
2021/12/21 13:27:14;;;;;;;;;;;;;;;4.89;42.88;99492.19;5097117;28;19920;-71
2021/12/21 13:29:42;;;;;;;;;;;;;;;4.87;42.56;99497.72;5115135;28;19916;-72
2021/12/21 13:32:09;;;;;;;;;;;;;;;4.85;43.17;99499.78;5115394;28;19973;-72
2021/12/21 13:34:35;;;;;;;;;;;;;;;4.84;43.34;99498.19;5096815;28;19938;-72
2021/12/21 13:37:02;;;;;;;;;;;;;;;4.84;43.19;99500.81;5114958;28;20287;-72
2021/12/21 13:39:28;;;;;;;;;;;;;;;4.84;43.72;99502.69;5115195;28;19965;-71
2021/12/21 13:42:06;;;;;;;;;;;;;;;4.79;43.90;99506.00;5115227;28;20504;-71
2021/12/21 13:44:46;;;;;;;;;;;;;;;4.79;43.75;99508.66;5114991;28;19920;-72
2021/12/21 13:47:14;;;;;;;;;;;;;;;4.78;44.19;99507.03;5115085;28;19934;-72
2021/12/21 13:49:49;;;;;;;;;;;;;;;4.78;44.41;99513.13;5114574;28;20002;-72
2021/12/21 13:52:17;;;;;;;;;;;;;;;4.76;44.61;99509.09;5114962;28;19916;-72
2021/12/21 13:54:42;;;;;;;;;;;;;;;4.74;45.21;99521.78;5114355;28;19916;-72
2021/12/21 13:57:08;;;;;;;;;;;;;;;4.73;45.45;99528.09;5114743;28;19965;-72
2021/12/21 13:59:35;;;;;;;;;;;;;;;4.72;45.57;99526.47;5114501;28;19939;-72